ETH846 FACT-HAAB
Flight info
| Callsign | ETH846 |
|---|---|
| Flight time | N/A |
| Altitude | 39000 |
| Route | KODES1A KODES UZ30 IMKIV UT916 VLS/N0483F410 UR779 MB UP312 LOSIN UM441 LOTAS/N0482F400 UM308 RUDOL RUDOL1A |
| Aircraft | A359/H-SDE2E3GHIJ3J4J5LM1ORWXY/LB1D1 |
Departure
| Time | N/A |
|---|---|
| Airport | Cape Town International Airport (FACT) |
Arrival
| Time | 2026-05-01 15:24 |
|---|---|
| Airport | Addis Ababa Bole International Airport (HAAB) |
| Time | Latitude | Longitude | Altitude | Speed | Heading |
|---|---|---|---|---|---|
| 2026-05-01 14:51 | 5.63710 | 37.75296 | 40949 ft | 483 kts | 13° |
| 2026-05-01 14:52 | 5.73463 | 37.77400 | 40952 ft | 479 kts | 13° |
| 2026-05-01 14:53 | 5.83251 | 37.79456 | 40953 ft | 479 kts | 12° |
| 2026-05-01 14:53 | 5.89782 | 37.80821 | 40947 ft | 479 kts | 12° |
| 2026-05-01 14:54 | 5.96313 | 37.82186 | 40944 ft | 479 kts | 12° |
| 2026-05-01 14:54 | 6.02837 | 37.83549 | 40951 ft | 479 kts | 12° |
| 2026-05-01 14:55 | 6.09365 | 37.84914 | 40947 ft | 479 kts | 12° |
| 2026-05-01 14:55 | 6.15890 | 37.86278 | 40952 ft | 479 kts | 12° |
| 2026-05-01 14:56 | 6.22416 | 37.87643 | 40946 ft | 479 kts | 12° |
| 2026-05-01 14:56 | 6.28909 | 37.89001 | 40930 ft | 479 kts | 12° |
| 2026-05-01 14:57 | 6.35429 | 37.90365 | 40944 ft | 479 kts | 12° |
| 2026-05-01 14:57 | 6.45223 | 37.92415 | 40936 ft | 479 kts | 12° |
| 2026-05-01 14:58 | 6.51750 | 37.93782 | 40930 ft | 479 kts | 12° |
| 2026-05-01 14:58 | 6.58275 | 37.95148 | 40933 ft | 479 kts | 12° |
| 2026-05-01 14:59 | 6.64792 | 37.96513 | 40932 ft | 478 kts | 12° |
| 2026-05-01 14:59 | 6.71310 | 37.97879 | 40937 ft | 478 kts | 12° |
| 2026-05-01 15:00 | 6.81029 | 37.99916 | 40945 ft | 478 kts | 12° |
| 2026-05-01 15:01 | 6.87543 | 38.01282 | 40950 ft | 478 kts | 12° |
| 2026-05-01 15:01 | 6.94063 | 38.02650 | 40951 ft | 478 kts | 12° |
| 2026-05-01 15:02 | 7.00574 | 38.04016 | 40952 ft | 478 kts | 12° |
| 2026-05-01 15:02 | 7.07089 | 38.05382 | 40958 ft | 478 kts | 12° |
| 2026-05-01 15:03 | 7.13605 | 38.06750 | 40957 ft | 478 kts | 12° |
| 2026-05-01 15:03 | 7.16867 | 38.07435 | 40834 ft | 479 kts | 12° |
| 2026-05-01 15:03 | 7.20125 | 38.08120 | 40592 ft | 478 kts | 12° |
| 2026-05-01 15:03 | 7.23376 | 38.08802 | 40353 ft | 478 kts | 12° |
| 2026-05-01 15:04 | 7.26640 | 38.09488 | 40109 ft | 479 kts | 12° |
| 2026-05-01 15:04 | 7.29906 | 38.10174 | 39822 ft | 479 kts | 12° |
| 2026-05-01 15:04 | 7.33164 | 38.10858 | 39291 ft | 478 kts | 12° |
| 2026-05-01 15:04 | 7.36414 | 38.11541 | 38696 ft | 478 kts | 12° |
| 2026-05-01 15:05 | 7.39678 | 38.12228 | 37987 ft | 479 kts | 12° |
| 2026-05-01 15:05 | 7.42948 | 38.12915 | 37326 ft | 479 kts | 12° |
| 2026-05-01 15:05 | 7.46167 | 38.13593 | 36681 ft | 479 kts | 12° |
| 2026-05-01 15:05 | 7.49433 | 38.14280 | 36018 ft | 480 kts | 12° |
| 2026-05-01 15:06 | 7.52744 | 38.14977 | 35313 ft | 481 kts | 11° |
| 2026-05-01 15:06 | 7.55978 | 38.15657 | 34598 ft | 483 kts | 11° |
| 2026-05-01 15:06 | 7.59284 | 38.16353 | 33806 ft | 487 kts | 11° |
| 2026-05-01 15:06 | 7.62621 | 38.17054 | 32920 ft | 490 kts | 11° |
| 2026-05-01 15:07 | 7.65941 | 38.17752 | 32304 ft | 487 kts | 11° |
| 2026-05-01 15:07 | 7.69242 | 38.18447 | 31757 ft | 483 kts | 11° |
| 2026-05-01 15:07 | 7.72392 | 38.19109 | 31202 ft | 480 kts | 11° |
| 2026-05-01 15:07 | 7.75650 | 38.19795 | 30627 ft | 477 kts | 11° |
| 2026-05-01 15:08 | 7.78908 | 38.20481 | 30053 ft | 475 kts | 11° |
| 2026-05-01 15:08 | 7.82127 | 38.21159 | 29416 ft | 472 kts | 12° |
| 2026-05-01 15:08 | 7.85321 | 38.21831 | 28839 ft | 468 kts | 12° |
| 2026-05-01 15:08 | 7.88497 | 38.22500 | 28281 ft | 463 kts | 12° |
| 2026-05-01 15:09 | 7.91603 | 38.23154 | 27736 ft | 459 kts | 12° |
| 2026-05-01 15:09 | 7.94754 | 38.23818 | 27173 ft | 455 kts | 12° |
| 2026-05-01 15:09 | 7.97798 | 38.24459 | 26634 ft | 451 kts | 12° |
| 2026-05-01 15:09 | 8.00855 | 38.25103 | 26094 ft | 448 kts | 12° |
| 2026-05-01 15:10 | 8.03896 | 38.25744 | 25541 ft | 445 kts | 12° |
| 2026-05-01 15:10 | 8.09916 | 38.27014 | 24451 ft | 439 kts | 13° |
| 2026-05-01 15:10 | 8.12899 | 38.27645 | 23901 ft | 437 kts | 13° |
| 2026-05-01 15:11 | 8.15803 | 38.28488 | 23139 ft | 437 kts | 21° |
| 2026-05-01 15:11 | 8.21415 | 38.30739 | 22083 ft | 425 kts | 23° |
| 2026-05-01 15:11 | 8.24109 | 38.31833 | 22004 ft | 412 kts | 23° |
| 2026-05-01 15:12 | 8.26754 | 38.32904 | 21877 ft | 407 kts | 22° |
| 2026-05-01 15:12 | 8.32031 | 38.35038 | 20259 ft | 413 kts | 22° |
| 2026-05-01 15:12 | 8.34702 | 38.36116 | 19545 ft | 414 kts | 22° |
| 2026-05-01 15:13 | 8.42628 | 38.39311 | 16983 ft | 405 kts | 22° |
| 2026-05-01 15:14 | 8.47827 | 38.41405 | 15822 ft | 394 kts | 22° |
| 2026-05-01 15:14 | 8.50294 | 38.42401 | 15561 ft | 380 kts | 22° |
| 2026-05-01 15:14 | 8.55034 | 38.44315 | 15142 ft | 355 kts | 22° |
| 2026-05-01 15:15 | 8.59472 | 38.46105 | 14700 ft | 334 kts | 22° |
| 2026-05-01 15:15 | 8.63667 | 38.47798 | 14287 ft | 315 kts | 22° |
| 2026-05-01 15:16 | 8.67612 | 38.49391 | 13905 ft | 297 kts | 22° |
| 2026-05-01 15:16 | 8.71241 | 38.51150 | 13545 ft | 281 kts | 28° |
| 2026-05-01 15:17 | 8.74627 | 38.52983 | 12964 ft | 273 kts | 28° |
| 2026-05-01 15:18 | 8.76611 | 38.54054 | 12603 ft | 270 kts | 28° |
| 2026-05-01 15:18 | 8.77442 | 38.54502 | 12448 ft | 270 kts | 28° |
| 2026-05-01 15:19 | 8.82311 | 38.57170 | 11633 ft | 260 kts | 34° |
| 2026-05-01 15:19 | 8.85140 | 38.59431 | 11200 ft | 259 kts | 40° |
| 2026-05-01 15:19 | 8.86521 | 38.60591 | 10973 ft | 257 kts | 40° |
| 2026-05-01 15:20 | 8.89284 | 38.62746 | 10744 ft | 244 kts | 36° |
| 2026-05-01 15:20 | 8.90644 | 38.63722 | 10601 ft | 236 kts | 36° |
| 2026-05-01 15:20 | 8.91941 | 38.64673 | 10501 ft | 223 kts | 38° |
| 2026-05-01 15:21 | 8.92954 | 38.65769 | 10318 ft | 205 kts | 60° |
| 2026-05-01 15:21 | 8.93566 | 38.67041 | 9830 ft | 200 kts | 68° |
| 2026-05-01 15:21 | 8.94098 | 38.68298 | 9436 ft | 192 kts | 67° |
| 2026-05-01 15:21 | 8.94570 | 38.69522 | 9214 ft | 179 kts | 69° |
| 2026-05-01 15:22 | 8.95247 | 38.71792 | 8762 ft | 158 kts | 74° |
| 2026-05-01 15:22 | 8.95555 | 38.72830 | 8594 ft | 151 kts | 71° |
| 2026-05-01 15:22 | 8.95867 | 38.73864 | 8556 ft | 158 kts | 71° |
| 2026-05-01 15:23 | 8.96196 | 38.74923 | 8432 ft | 159 kts | 72° |
| 2026-05-01 15:23 | 8.96518 | 38.76005 | 8241 ft | 162 kts | 70° |
| 2026-05-01 15:23 | 8.96847 | 38.77092 | 8046 ft | 161 kts | 69° |
| 2026-05-01 15:23 | 8.97172 | 38.78176 | 7772 ft | 162 kts | 68° |
| 2026-05-01 15:24 | 8.97504 | 38.79270 | 7639 ft | 159 kts | 71° |
| 2026-05-01 15:24 | 8.97781 | 38.80245 | 7625 ft | 116 kts | 75° |
| 2026-05-01 15:24 | 8.97940 | 38.80767 | 7623 ft | 56 kts | 72° |
| 2026-05-01 15:24 | 8.98032 | 38.81077 | 7620 ft | 34 kts | 73° |
| 2026-05-01 15:25 | 8.98094 | 38.81201 | 7621 ft | 12 kts | 39° |
| 2026-05-01 15:25 | 8.98158 | 38.81255 | 7620 ft | 12 kts | 39° |
| 2026-05-01 15:25 | 8.98222 | 38.81308 | 7620 ft | 12 kts | 40° |
| 2026-05-01 15:25 | 8.98281 | 38.81307 | 7620 ft | 8 kts | 312° |
| 2026-05-01 15:26 | 8.98282 | 38.81258 | 7620 ft | 9 kts | 255° |
| 2026-05-01 15:26 | 8.98259 | 38.81176 | 7620 ft | 13 kts | 254° |
| 2026-05-01 15:26 | 8.98235 | 38.81087 | 7621 ft | 13 kts | 254° |
| 2026-05-01 15:26 | 8.98211 | 38.81001 | 7621 ft | 13 kts | 254° |
| 2026-05-01 15:27 | 8.98184 | 38.80913 | 7621 ft | 14 kts | 252° |
| 2026-05-01 15:27 | 8.98155 | 38.80821 | 7621 ft | 14 kts | 252° |
| 2026-05-01 15:27 | 8.98126 | 38.80728 | 7621 ft | 14 kts | 252° |
| 2026-05-01 15:28 | 8.98075 | 38.80548 | 7623 ft | 14 kts | 253° |
| 2026-05-01 15:28 | 8.98047 | 38.80454 | 7623 ft | 14 kts | 252° |
| 2026-05-01 15:28 | 8.98018 | 38.80362 | 7625 ft | 13 kts | 252° |
| 2026-05-01 15:29 | 8.97965 | 38.80179 | 7625 ft | 14 kts | 254° |
| 2026-05-01 15:29 | 8.97938 | 38.80081 | 7624 ft | 15 kts | 254° |
| 2026-05-01 15:29 | 8.97884 | 38.79905 | 7624 ft | 11 kts | 253° |
| 2026-05-01 15:30 | 8.97936 | 38.79810 | 7624 ft | 9 kts | 348° |
| 2026-05-01 15:31 | 8.98160 | 38.79695 | 7624 ft | 9 kts | 255° |
| 2026-05-01 15:31 | 8.98125 | 38.79569 | 7624 ft | 10 kts | 253° |
| 2026-05-01 15:32 | 8.98079 | 38.79425 | 7624 ft | 12 kts | 252° |
| 2026-05-01 15:32 | 8.98045 | 38.79329 | 7624 ft | 3 kts | 224° |
| 2026-05-01 15:33 | 8.97973 | 38.79343 | 7624 ft | 4 kts | 164° |
| 2026-05-01 15:34 | 8.97951 | 38.79349 | 7624 ft | 0 kts | 164° |